createdAt,value
2023-04-17T00:01:40.592Z,9.60
2023-04-17T00:04:11.373Z,9.70
2023-04-17T00:06:39.862Z,9.60
2023-04-17T00:09:06.999Z,9.60
2023-04-17T00:11:33.808Z,9.60
2023-04-17T00:14:00.876Z,9.40
2023-04-17T00:16:27.951Z,9.40
2023-04-17T00:18:55.768Z,9.30
2023-04-17T00:21:22.885Z,9.30
2023-04-17T00:23:49.846Z,9.30
2023-04-17T00:26:16.664Z,9.40
2023-04-17T00:28:43.498Z,9.40
2023-04-17T00:31:10.348Z,9.40
2023-04-17T00:33:37.161Z,9.30
2023-04-17T00:36:04.341Z,9.50
2023-04-17T00:38:31.147Z,9.50
2023-04-17T00:40:58.088Z,9.50
2023-04-17T00:43:24.874Z,9.50
2023-04-17T00:45:53.809Z,9.50
2023-04-17T00:48:24.246Z,9.40
2023-04-17T00:50:52.604Z,9.30
2023-04-17T00:53:19.576Z,9.30
2023-04-17T00:55:51.203Z,9.30
2023-04-17T00:58:18.836Z,9.40
2023-04-17T01:00:45.876Z,9.40
2023-04-17T01:03:12.996Z,9.40
2023-04-17T01:05:41.203Z,9.50
2023-04-17T01:08:08.009Z,9.50
2023-04-17T01:10:34.963Z,9.40
2023-04-17T01:13:07.652Z,9.40
2023-04-17T01:15:36.329Z,9.40
2023-04-17T01:18:04.773Z,9.50
2023-04-17T01:20:32.858Z,9.40
2023-04-17T01:23:01.078Z,9.40
2023-04-17T01:25:28.968Z,9.50
2023-04-17T01:27:56.875Z,9.40
2023-04-17T01:30:24.458Z,9.50
2023-04-17T01:32:57.673Z,9.50
2023-04-17T01:35:24.764Z,9.40
2023-04-17T01:37:52.141Z,9.40
2023-04-17T01:40:18.985Z,9.40
2023-04-17T01:42:45.787Z,9.30
2023-04-17T01:45:12.637Z,9.20
2023-04-17T01:47:40.574Z,9.20
2023-04-17T01:50:09.055Z,9.20
2023-04-17T01:52:36.474Z,9.30
2023-04-17T01:55:04.178Z,9.30
2023-04-17T01:57:33.174Z,9.40
2023-04-17T01:59:59.997Z,9.40
2023-04-17T02:02:27.031Z,9.40
2023-04-17T02:04:54.575Z,9.50
2023-04-17T02:07:21.550Z,9.30
2023-04-17T02:09:48.283Z,9.40
2023-04-17T02:12:15.440Z,9.30
2023-04-17T02:14:43.054Z,9.30
2023-04-17T02:17:09.886Z,9.30
2023-04-17T02:19:36.640Z,9.30
2023-04-17T02:22:03.559Z,9.30
2023-04-17T02:24:31.365Z,9.40
2023-04-17T02:27:00.724Z,9.30
2023-04-17T02:29:27.577Z,9.10
2023-04-17T02:31:54.610Z,9.20
2023-04-17T02:34:21.430Z,9.20
2023-04-17T02:36:50.915Z,9.30
2023-04-17T02:39:19.081Z,9.30
2023-04-17T02:41:45.898Z,9.30
2023-04-17T02:44:12.810Z,9.40
2023-04-17T02:46:39.661Z,9.30
2023-04-17T02:49:08.423Z,9.40
2023-04-17T02:51:36.378Z,9.40
2023-04-17T02:54:03.462Z,9.30
2023-04-17T02:56:30.389Z,9.20
2023-04-17T02:58:57.185Z,9.30
2023-04-17T03:01:24.138Z,9.30
2023-04-17T03:03:52.504Z,9.40
2023-04-17T03:06:19.730Z,9.40
2023-04-17T03:08:46.731Z,9.30
2023-04-17T03:11:13.700Z,9.30
2023-04-17T03:13:40.709Z,9.30
2023-04-17T03:16:08.105Z,9.30
2023-04-17T03:18:43.401Z,9.30
2023-04-17T03:21:10.450Z,9.20
2023-04-17T03:23:37.286Z,9.30
2023-04-17T03:26:06.343Z,9.40
2023-04-17T03:28:34.034Z,9.40
2023-04-17T03:31:02.025Z,9.20
2023-04-17T03:33:30.570Z,9.30
2023-04-17T03:35:58.444Z,9.30
2023-04-17T03:38:25.338Z,9.30
2023-04-17T03:40:53.393Z,9.30
2023-04-17T03:43:22.981Z,9.20
2023-04-17T03:45:49.921Z,9.20
2023-04-17T03:48:17.416Z,9.20
2023-04-17T03:50:45.816Z,9.30
2023-04-17T03:53:13.320Z,9.20
2023-04-17T03:55:40.718Z,9.10
2023-04-17T03:58:09.885Z,9.00
2023-04-17T04:00:37.398Z,9.00
2023-04-17T04:03:08.050Z,9.00
2023-04-17T04:05:39.582Z,9.00
2023-04-17T04:08:08.285Z,9.00
2023-04-17T04:10:44.821Z,9.00
2023-04-17T04:13:14.967Z,9.00
2023-04-17T04:15:45.279Z,8.90
2023-04-17T04:18:14.438Z,8.80
2023-04-17T04:20:41.412Z,8.80
2023-04-17T04:23:16.678Z,9.00
2023-04-17T04:25:44.826Z,9.00
2023-04-17T04:28:24.118Z,9.00
2023-04-17T04:30:53.032Z,9.00
2023-04-17T04:33:21.781Z,8.90
2023-04-17T04:35:48.978Z,8.90
2023-04-17T04:38:17.169Z,8.80
2023-04-17T04:40:52.170Z,8.90
2023-04-17T04:43:22.193Z,8.80
2023-04-17T04:45:52.461Z,8.80
2023-04-17T04:48:19.675Z,8.80
2023-04-17T04:50:46.600Z,8.80
2023-04-17T04:53:13.445Z,8.90
2023-04-17T04:55:48.889Z,8.90
2023-04-17T04:58:16.249Z,8.90
2023-04-17T05:00:44.936Z,8.80
2023-04-17T05:03:17.817Z,8.90
2023-04-17T05:05:46.034Z,8.80
2023-04-17T05:08:15.240Z,8.80
2023-04-17T05:10:47.369Z,8.80
2023-04-17T05:13:14.680Z,8.90
2023-04-17T05:15:41.645Z,8.90
2023-04-17T05:18:09.637Z,8.90
2023-04-17T05:20:37.698Z,8.90
2023-04-17T05:23:05.888Z,8.90
2023-04-17T05:25:32.827Z,8.90
2023-04-17T05:28:01.374Z,8.90
2023-04-17T05:30:28.382Z,8.90
2023-04-17T05:33:06.672Z,8.80
2023-04-17T05:35:48.032Z,8.80
2023-04-17T05:38:14.898Z,8.80
2023-04-17T05:40:41.747Z,8.80
2023-04-17T05:43:10.302Z,8.90
2023-04-17T05:45:38.625Z,8.90
2023-04-17T05:48:08.689Z,8.90
2023-04-17T05:50:37.348Z,9.00
2023-04-17T05:53:05.100Z,9.00
2023-04-17T05:55:36.197Z,9.00
2023-04-17T05:58:20.362Z,9.00
2023-04-17T06:00:49.957Z,9.00
2023-04-17T06:03:19.510Z,9.00
2023-04-17T06:05:49.974Z,9.10
2023-04-17T06:08:17.185Z,9.10
2023-04-17T06:10:45.847Z,9.00
2023-04-17T06:13:13.360Z,9.00
2023-04-17T06:15:44.875Z,9.00
2023-04-17T06:18:11.916Z,8.90
2023-04-17T06:20:40.271Z,8.80
2023-04-17T06:23:07.145Z,8.70
2023-04-17T06:25:34.004Z,8.90
2023-04-17T06:28:00.862Z,8.90
2023-04-17T06:30:28.277Z,9.00
2023-04-17T06:32:55.807Z,9.00
2023-04-17T06:35:22.802Z,9.00
2023-04-17T06:38:09.899Z,8.90
2023-04-17T06:40:36.782Z,8.90
2023-04-17T06:43:05.799Z,8.90
2023-04-17T06:45:34.227Z,8.80
2023-04-17T06:48:01.038Z,8.90
2023-04-17T06:50:29.126Z,8.90
2023-04-17T06:52:56.092Z,9.00
2023-04-17T06:55:22.893Z,9.00
2023-04-17T06:57:49.621Z,9.00
2023-04-17T07:00:16.987Z,9.00
2023-04-17T07:02:43.968Z,9.00
2023-04-17T07:05:11.407Z,9.00
2023-04-17T07:07:39.607Z,9.10
2023-04-17T07:10:07.437Z,9.00
2023-04-17T07:12:34.375Z,9.00
2023-04-17T07:15:01.253Z,9.00
2023-04-17T07:17:28.100Z,9.00
2023-04-17T07:19:55.045Z,9.00
2023-04-17T07:22:22.270Z,9.00
2023-04-17T07:24:49.057Z,8.90
2023-04-17T07:27:15.856Z,8.90
2023-04-17T07:29:42.620Z,8.90
2023-04-17T07:32:09.430Z,9.10
2023-04-17T07:34:41.070Z,9.10
2023-04-17T07:37:07.932Z,9.10
2023-04-17T07:39:34.719Z,9.00
2023-04-17T07:42:06.220Z,9.00
2023-04-17T07:44:33.207Z,9.00
2023-04-17T07:47:00.302Z,9.10
2023-04-17T07:49:27.453Z,9.10
2023-04-17T07:51:54.624Z,9.10
2023-04-17T07:54:21.464Z,9.20
2023-04-17T07:56:49.354Z,9.10
2023-04-17T07:59:16.944Z,9.10
2023-04-17T08:01:43.999Z,9.20
2023-04-17T08:04:10.935Z,9.20
2023-04-17T08:06:38.160Z,9.30
2023-04-17T08:09:05.267Z,9.40
2023-04-17T08:11:35.688Z,9.50
2023-04-17T08:14:06.825Z,9.40
2023-04-17T08:16:33.615Z,9.20
2023-04-17T08:19:00.514Z,9.40
2023-04-17T08:21:27.496Z,9.40
2023-04-17T08:23:54.283Z,9.40
2023-04-17T08:26:22.249Z,9.50
2023-04-17T08:28:49.018Z,9.70
2023-04-17T08:31:15.939Z,9.80
2023-04-17T08:33:42.736Z,9.60
2023-04-17T08:36:10.459Z,9.60
2023-04-17T08:38:37.444Z,9.60
2023-04-17T08:41:13.161Z,9.70
2023-04-17T08:43:41.313Z,9.70
2023-04-17T08:46:08.371Z,9.70
2023-04-17T08:48:35.496Z,9.90
2023-04-17T08:51:03.423Z,10.30
2023-04-17T08:53:30.282Z,10.20
2023-04-17T08:56:06.858Z,10.10
2023-04-17T08:58:36.690Z,10.00
2023-04-17T09:01:12.597Z,10.00
2023-04-17T09:03:44.443Z,9.90
2023-04-17T09:06:11.987Z,10.10
2023-04-17T09:08:53.701Z,10.40
2023-04-17T09:11:20.639Z,10.40
2023-04-17T09:13:47.413Z,10.50
2023-04-17T09:16:19.473Z,10.60
2023-04-17T09:18:47.474Z,10.60
2023-04-17T09:21:18.710Z,10.70
2023-04-17T09:23:52.154Z,10.50
2023-04-17T09:26:22.828Z,10.80
2023-04-17T09:29:11.390Z,10.90
2023-04-17T09:31:42.154Z,11.10
2023-04-17T09:34:12.059Z,11.20
2023-04-17T09:36:43.847Z,11.40
2023-04-17T09:39:26.183Z,11.40
2023-04-17T09:42:04.300Z,11.30
2023-04-17T09:44:31.389Z,11.10
2023-04-17T09:47:01.194Z,11.10
2023-04-17T09:49:42.517Z,11.00
2023-04-17T09:52:09.617Z,11.20
2023-04-17T09:54:40.004Z,11.40
2023-04-17T09:57:08.826Z,11.70
2023-04-17T09:59:48.879Z,11.60
2023-04-17T10:02:19.976Z,11.70
2023-04-17T10:04:47.720Z,12.10
2023-04-17T10:07:16.282Z,12.60
2023-04-17T10:09:45.708Z,12.90
2023-04-17T10:12:17.687Z,13.00
2023-04-17T10:14:48.331Z,12.90
2023-04-17T10:17:25.723Z,12.80
2023-04-17T10:19:52.638Z,12.70
2023-04-17T10:22:19.480Z,12.70
2023-04-17T10:24:54.307Z,12.60
2023-04-17T10:27:27.076Z,12.50
2023-04-17T10:29:59.770Z,13.00
2023-04-17T10:32:29.069Z,12.80
2023-04-17T10:34:59.801Z,12.70
2023-04-17T10:37:48.651Z,12.90
2023-04-17T10:40:33.660Z,12.60
2023-04-17T10:43:23.528Z,13.00
2023-04-17T10:46:04.545Z,12.80
2023-04-17T10:48:40.792Z,12.90
2023-04-17T10:51:26.948Z,12.90
2023-04-17T10:54:01.300Z,13.00
2023-04-17T10:56:49.169Z,13.00
2023-04-17T10:59:19.445Z,12.90
2023-04-17T11:01:49.354Z,12.90
2023-04-17T11:04:26.708Z,13.10
2023-04-17T11:06:54.179Z,13.20
2023-04-17T11:09:27.397Z,13.50
2023-04-17T11:11:55.335Z,13.60
2023-04-17T11:14:23.664Z,13.40
2023-04-17T11:16:52.152Z,13.40
2023-04-17T11:19:25.208Z,13.50
2023-04-17T11:21:55.140Z,13.70
2023-04-17T11:24:30.532Z,14.00
2023-04-17T11:27:01.714Z,14.00
2023-04-17T11:29:29.230Z,13.80
2023-04-17T11:31:57.552Z,14.00
2023-04-17T11:34:26.747Z,14.20
2023-04-17T11:36:58.941Z,14.00
2023-04-17T11:39:30.558Z,13.90
2023-04-17T11:41:57.896Z,13.60
2023-04-17T11:44:25.917Z,13.60
2023-04-17T11:47:00.873Z,13.40
2023-04-17T11:49:30.650Z,13.50
2023-04-17T11:52:01.492Z,13.80
2023-04-17T11:54:31.262Z,14.10
2023-04-17T11:57:14.646Z,14.40
2023-04-17T11:59:42.897Z,14.60
2023-04-17T12:02:10.352Z,14.50
2023-04-17T12:04:40.138Z,14.70
2023-04-17T12:07:08.552Z,14.80
2023-04-17T12:09:36.841Z,15.00
2023-04-17T12:12:08.198Z,14.80
2023-04-17T12:14:35.758Z,14.90
2023-04-17T12:17:02.688Z,14.70
2023-04-17T12:19:31.577Z,14.70
2023-04-17T12:21:59.197Z,14.80
2023-04-17T12:24:26.230Z,15.10
2023-04-17T12:26:53.390Z,14.90
2023-04-17T12:29:29.521Z,15.20
2023-04-17T12:32:07.809Z,15.10
2023-04-17T12:34:34.863Z,15.10
2023-04-17T12:37:01.735Z,15.10
2023-04-17T12:39:28.524Z,15.10
2023-04-17T12:41:55.400Z,15.00
2023-04-17T12:44:22.160Z,15.10
2023-04-17T12:46:49.013Z,15.10
2023-04-17T12:49:16.420Z,15.30
2023-04-17T12:51:43.256Z,15.30
2023-04-17T12:54:10.492Z,15.40
2023-04-17T12:56:37.400Z,15.40
2023-04-17T12:59:04.725Z,15.40
2023-04-17T13:01:31.522Z,15.30
2023-04-17T13:03:58.370Z,15.70
2023-04-17T13:06:25.528Z,15.50
2023-04-17T13:08:52.371Z,15.50
2023-04-17T13:11:19.174Z,15.60
2023-04-17T13:13:46.044Z,15.50
2023-04-17T13:16:12.818Z,15.30
2023-04-17T13:18:39.686Z,15.40
2023-04-17T13:21:06.833Z,15.70
2023-04-17T13:23:33.704Z,15.70
2023-04-17T13:26:00.544Z,15.90
2023-04-17T13:28:27.323Z,15.80
2023-04-17T13:30:56.772Z,15.70
2023-04-17T13:33:23.615Z,15.60
2023-04-17T13:35:52.638Z,15.60
2023-04-17T13:38:19.558Z,15.40
2023-04-17T13:40:46.331Z,15.20
2023-04-17T13:43:13.414Z,15.50
2023-04-17T13:45:40.429Z,15.70
2023-04-17T13:48:07.280Z,15.80
2023-04-17T13:50:34.236Z,15.80
2023-04-17T13:53:01.612Z,16.00
2023-04-17T13:55:28.542Z,16.10
2023-04-17T13:57:55.467Z,16.00
2023-04-17T14:00:22.546Z,15.80
2023-04-17T14:02:49.591Z,15.60
2023-04-17T14:05:16.760Z,15.60
2023-04-17T14:07:44.516Z,15.80
2023-04-17T14:10:11.400Z,16.10
2023-04-17T14:12:38.251Z,16.00
2023-04-17T14:15:07.255Z,15.80
2023-04-17T14:17:37.953Z,15.60
2023-04-17T14:20:06.141Z,15.50
2023-04-17T14:22:32.907Z,15.70
2023-04-17T14:24:59.637Z,16.00
2023-04-17T14:27:26.722Z,16.00
2023-04-17T14:29:53.562Z,15.90
2023-04-17T14:32:20.473Z,15.80
2023-04-17T14:34:47.252Z,15.90
2023-04-17T14:37:14.040Z,16.10
2023-04-17T14:39:40.964Z,15.80
2023-04-17T14:42:07.816Z,15.70
2023-04-17T14:44:34.582Z,15.70
2023-04-17T14:47:02.329Z,15.80
2023-04-17T14:49:30.268Z,15.60
2023-04-17T14:51:57.034Z,15.40
2023-04-17T14:54:23.941Z,15.20
2023-04-17T14:56:50.891Z,15.20
2023-04-17T14:59:17.826Z,15.30
2023-04-17T15:01:44.819Z,15.30
2023-04-17T15:04:12.060Z,15.30
2023-04-17T15:06:39.143Z,15.30
2023-04-17T15:09:06.719Z,15.40
2023-04-17T15:11:33.553Z,15.20
2023-04-17T15:14:00.533Z,15.20
2023-04-17T15:16:27.506Z,15.40
2023-04-17T15:18:54.407Z,15.50
2023-04-17T15:21:21.300Z,15.60
2023-04-17T15:23:48.288Z,15.50
2023-04-17T15:26:15.242Z,15.60
2023-04-17T15:28:42.110Z,15.90
2023-04-17T15:31:08.988Z,15.90
2023-04-17T15:33:37.624Z,15.90
2023-04-17T15:36:04.514Z,16.00
2023-04-17T15:38:31.299Z,15.80
2023-04-17T15:40:58.889Z,15.50
2023-04-17T15:43:26.166Z,15.50
2023-04-17T15:45:52.996Z,15.40
2023-04-17T15:48:19.986Z,15.40
2023-04-17T15:50:46.877Z,15.20
2023-04-17T15:53:13.736Z,15.20
2023-04-17T15:55:41.160Z,15.10
2023-04-17T15:58:08.274Z,15.00
2023-04-17T16:00:35.138Z,15.10
2023-04-17T16:03:02.129Z,15.10
2023-04-17T16:05:30.327Z,15.00
2023-04-17T16:07:57.338Z,15.00
2023-04-17T16:10:24.640Z,15.20
2023-04-17T16:12:51.391Z,15.20
2023-04-17T16:15:18.743Z,15.20
2023-04-17T16:17:46.076Z,15.20
2023-04-17T16:20:13.367Z,15.30
2023-04-17T16:22:40.718Z,15.40
2023-04-17T16:25:08.307Z,15.30
2023-04-17T16:27:35.199Z,15.20
2023-04-17T16:30:02.917Z,15.20
2023-04-17T16:32:31.643Z,15.20
2023-04-17T16:34:58.842Z,15.20
2023-04-17T16:37:25.986Z,15.20
2023-04-17T16:39:53.031Z,15.20
2023-04-17T16:42:19.782Z,15.20
2023-04-17T16:44:47.267Z,15.10
2023-04-17T16:47:14.855Z,15.10
2023-04-17T16:49:42.582Z,15.10
2023-04-17T16:52:09.866Z,15.10
2023-04-17T16:54:36.686Z,15.00
2023-04-17T16:57:04.989Z,15.10
2023-04-17T16:59:32.601Z,15.00
2023-04-17T17:02:02.225Z,14.90
2023-04-17T17:04:30.141Z,14.90
2023-04-17T17:06:57.694Z,14.80
2023-04-17T17:09:26.239Z,14.60
2023-04-17T17:11:53.194Z,14.70
2023-04-17T17:14:20.165Z,14.70
2023-04-17T17:16:46.936Z,14.60
2023-04-17T17:19:14.704Z,14.60
2023-04-17T17:21:41.666Z,14.60
2023-04-17T17:24:08.505Z,14.60
2023-04-17T17:26:36.910Z,14.60
2023-04-17T17:29:04.120Z,14.50
2023-04-17T17:31:33.513Z,14.40
2023-04-17T17:34:12.028Z,14.50
2023-04-17T17:36:47.851Z,14.40
2023-04-17T17:39:14.875Z,14.40
2023-04-17T17:41:41.781Z,14.30
2023-04-17T17:44:08.699Z,14.30
2023-04-17T17:46:35.711Z,14.30
2023-04-17T17:49:02.566Z,14.20
2023-04-17T17:51:29.384Z,14.20
2023-04-17T17:53:56.383Z,14.10
2023-04-17T17:56:23.541Z,14.10
2023-04-17T17:58:53.634Z,14.10
2023-04-17T18:01:21.438Z,14.00
2023-04-17T18:03:49.914Z,14.00
2023-04-17T18:06:17.195Z,13.90
2023-04-17T18:08:44.001Z,13.90
2023-04-17T18:11:10.761Z,13.80
2023-04-17T18:13:37.525Z,13.80
2023-04-17T18:16:04.757Z,13.80
2023-04-17T18:18:31.612Z,13.70
2023-04-17T18:20:58.453Z,13.70
2023-04-17T18:23:25.545Z,13.60
2023-04-17T18:26:03.439Z,13.60
2023-04-17T18:28:30.676Z,13.50
2023-04-17T18:30:57.583Z,13.50
2023-04-17T18:33:24.654Z,13.50
2023-04-17T18:35:51.827Z,13.40
2023-04-17T18:38:18.792Z,13.30
2023-04-17T18:40:45.630Z,13.30
2023-04-17T18:43:12.479Z,13.30
2023-04-17T18:45:39.323Z,13.10
2023-04-17T18:48:06.401Z,13.10
2023-04-17T18:50:33.250Z,13.10
2023-04-17T18:53:00.094Z,13.00
2023-04-17T18:55:26.952Z,13.00
2023-04-17T18:57:53.731Z,12.80
2023-04-17T19:00:20.671Z,12.90
2023-04-17T19:02:47.808Z,12.80
2023-04-17T19:05:15.089Z,12.70
2023-04-17T19:07:42.079Z,12.70
2023-04-17T19:10:09.686Z,12.60
2023-04-17T19:12:36.539Z,12.60
2023-04-17T19:15:04.615Z,12.60
2023-04-17T19:17:31.908Z,12.60
2023-04-17T19:19:58.679Z,12.40
2023-04-17T19:22:25.590Z,12.50
2023-04-17T19:24:52.933Z,12.40
2023-04-17T19:27:20.316Z,12.30
2023-04-17T19:29:47.727Z,12.30
2023-04-17T19:32:16.490Z,12.30
2023-04-17T19:34:44.278Z,12.20
2023-04-17T19:37:11.184Z,12.20
2023-04-17T19:39:38.071Z,12.20
2023-04-17T19:42:05.564Z,12.10
2023-04-17T19:44:32.434Z,12.10
2023-04-17T19:46:59.394Z,12.10
2023-04-17T19:49:26.402Z,12.00
2023-04-17T19:51:53.222Z,11.90
2023-04-17T19:54:19.970Z,11.90
2023-04-17T19:56:46.756Z,11.90
2023-04-17T19:59:14.190Z,11.80
2023-04-17T20:01:43.423Z,11.80
2023-04-17T20:04:11.261Z,11.80
2023-04-17T20:06:39.506Z,11.80
2023-04-17T20:09:06.455Z,11.70
2023-04-17T20:11:33.385Z,11.70
2023-04-17T20:14:00.142Z,11.70
2023-04-17T20:16:26.939Z,11.60
2023-04-17T20:18:56.361Z,11.60
2023-04-17T20:21:23.480Z,11.60
2023-04-17T20:23:50.258Z,11.50
2023-04-17T20:26:17.060Z,11.50
2023-04-17T20:28:43.915Z,11.40
2023-04-17T20:31:10.783Z,11.40
2023-04-17T20:33:37.571Z,11.30
2023-04-17T20:36:05.812Z,11.20
2023-04-17T20:38:32.664Z,11.20
2023-04-17T20:40:59.506Z,11.20
2023-04-17T20:43:26.406Z,11.20
2023-04-17T20:45:53.229Z,11.10
2023-04-17T20:48:20.108Z,11.00
2023-04-17T20:50:47.014Z,11.10
2023-04-17T20:53:13.878Z,11.00
2023-04-17T20:55:40.768Z,11.00
2023-04-17T20:58:07.738Z,10.90
2023-04-17T21:00:34.685Z,10.90
2023-04-17T21:03:01.788Z,10.90
2023-04-17T21:05:29.065Z,10.90
2023-04-17T21:07:57.603Z,10.80
2023-04-17T21:10:24.614Z,10.80
2023-04-17T21:12:51.420Z,10.70
2023-04-17T21:15:18.397Z,10.60
2023-04-17T21:17:47.507Z,10.70
2023-04-17T21:20:14.730Z,10.60
2023-04-17T21:22:41.604Z,10.60
2023-04-17T21:25:08.884Z,10.50
2023-04-17T21:27:35.732Z,10.60
2023-04-17T21:30:03.785Z,10.50
2023-04-17T21:32:30.696Z,10.50
2023-04-17T21:34:57.610Z,10.40
2023-04-17T21:37:24.597Z,10.40
2023-04-17T21:39:51.412Z,10.40
2023-04-17T21:42:18.311Z,10.40
2023-04-17T21:44:45.050Z,10.40
2023-04-17T21:47:12.230Z,10.40
2023-04-17T21:49:39.035Z,10.30
2023-04-17T21:52:05.884Z,10.30
2023-04-17T21:54:33.642Z,10.30
2023-04-17T21:57:02.024Z,10.30
2023-04-17T21:59:28.844Z,10.20
2023-04-17T22:01:55.624Z,10.10
2023-04-17T22:04:22.701Z,10.10
2023-04-17T22:06:51.627Z,10.10
2023-04-17T22:09:19.939Z,10.10
2023-04-17T22:11:49.280Z,10.10
2023-04-17T22:14:16.931Z,10.00
2023-04-17T22:16:44.246Z,10.00
2023-04-17T22:19:11.230Z,9.90
2023-04-17T22:22:16.281Z,9.90
2023-04-17T22:25:20.981Z,10.00
2023-04-17T22:28:44.069Z,9.80
2023-04-17T22:32:09.828Z,9.80
2023-04-17T22:35:32.390Z,9.90
2023-04-17T22:38:18.404Z,9.80
2023-04-17T22:41:42.506Z,9.80
2023-04-17T22:45:24.404Z,9.80
2023-04-17T22:48:28.758Z,9.70
2023-04-17T22:51:51.780Z,9.80
2023-04-17T22:54:56.066Z,9.70
2023-04-17T22:58:19.819Z,9.60
2023-04-17T23:01:23.936Z,9.60
2023-04-17T23:05:05.845Z,9.60
2023-04-17T23:07:32.819Z,9.60
2023-04-17T23:09:59.690Z,9.60
2023-04-17T23:12:26.543Z,9.50
2023-04-17T23:14:53.479Z,9.50
2023-04-17T23:17:20.318Z,9.50
2023-04-17T23:19:47.954Z,9.50
2023-04-17T23:22:14.943Z,9.50
2023-04-17T23:24:41.774Z,9.40
2023-04-17T23:27:08.540Z,9.40
2023-04-17T23:29:35.306Z,9.40
2023-04-17T23:32:04.325Z,9.30
2023-04-17T23:34:31.099Z,9.30
2023-04-17T23:36:57.886Z,9.40
2023-04-17T23:39:25.117Z,9.30
2023-04-17T23:41:51.953Z,9.30
2023-04-17T23:44:19.188Z,9.40
2023-04-17T23:46:46.121Z,9.30
2023-04-17T23:49:12.987Z,9.30
2023-04-17T23:51:39.860Z,9.30
2023-04-17T23:54:07.969Z,9.20
2023-04-17T23:56:34.777Z,9.20
2023-04-17T23:59:01.529Z,9.20
